sensor_id;sensor_type;location;lat;lon;timestamp;P1;durP1;ratioP1;P2;durP2;ratioP2
8632;SDS011;4354;49.832;10.746;2023-05-07T00:01:33;6.87;;;4.60;;
8632;SDS011;4354;49.832;10.746;2023-05-07T00:04:00;4.20;;;3.80;;
8632;SDS011;4354;49.832;10.746;2023-05-07T00:06:26;3.80;;;3.50;;
8632;SDS011;4354;49.832;10.746;2023-05-07T00:08:56;5.20;;;3.60;;
8632;SDS011;4354;49.832;10.746;2023-05-07T00:11:23;5.63;;;3.57;;
8632;SDS011;4354;49.832;10.746;2023-05-07T00:13:49;7.03;;;3.07;;
8632;SDS011;4354;49.832;10.746;2023-05-07T00:16:16;4.00;;;3.37;;
8632;SDS011;4354;49.832;10.746;2023-05-07T00:18:43;3.93;;;3.37;;
8632;SDS011;4354;49.832;10.746;2023-05-07T00:21:10;3.67;;;3.37;;
8632;SDS011;4354;49.832;10.746;2023-05-07T00:23:37;4.33;;;3.03;;
8632;SDS011;4354;49.832;10.746;2023-05-07T00:26:04;3.73;;;2.87;;
8632;SDS011;4354;49.832;10.746;2023-05-07T00:28:30;5.33;;;3.53;;
8632;SDS011;4354;49.832;10.746;2023-05-07T00:30:57;3.57;;;3.27;;
8632;SDS011;4354;49.832;10.746;2023-05-07T00:33:24;3.40;;;2.90;;
8632;SDS011;4354;49.832;10.746;2023-05-07T00:35:52;4.30;;;2.90;;
8632;SDS011;4354;49.832;10.746;2023-05-07T00:38:20;3.90;;;3.37;;
8632;SDS011;4354;49.832;10.746;2023-05-07T00:40:47;8.60;;;3.50;;
8632;SDS011;4354;49.832;10.746;2023-05-07T00:43:13;4.60;;;3.27;;
8632;SDS011;4354;49.832;10.746;2023-05-07T00:45:41;5.43;;;3.07;;
8632;SDS011;4354;49.832;10.746;2023-05-07T00:48:08;5.13;;;3.23;;
8632;SDS011;4354;49.832;10.746;2023-05-07T00:50:34;3.73;;;3.43;;
8632;SDS011;4354;49.832;10.746;2023-05-07T00:53:01;3.70;;;3.40;;
8632;SDS011;4354;49.832;10.746;2023-05-07T00:55:28;4.60;;;3.07;;
8632;SDS011;4354;49.832;10.746;2023-05-07T00:57:55;3.97;;;3.07;;
8632;SDS011;4354;49.832;10.746;2023-05-07T01:00:22;3.90;;;3.30;;
8632;SDS011;4354;49.832;10.746;2023-05-07T01:02:50;5.03;;;3.30;;
8632;SDS011;4354;49.832;10.746;2023-05-07T01:05:18;4.90;;;3.83;;
8632;SDS011;4354;49.832;10.746;2023-05-07T01:07:48;3.97;;;3.37;;
8632;SDS011;4354;49.832;10.746;2023-05-07T01:10:18;3.57;;;3.27;;
8632;SDS011;4354;49.832;10.746;2023-05-07T01:12:45;6.43;;;3.20;;
8632;SDS011;4354;49.832;10.746;2023-05-07T01:15:13;3.57;;;3.00;;
8632;SDS011;4354;49.832;10.746;2023-05-07T01:17:41;5.37;;;2.97;;
8632;SDS011;4354;49.832;10.746;2023-05-07T01:20:09;3.87;;;3.00;;
8632;SDS011;4354;49.832;10.746;2023-05-07T01:22:37;4.23;;;3.20;;
8632;SDS011;4354;49.832;10.746;2023-05-07T01:25:05;4.00;;;3.37;;
8632;SDS011;4354;49.832;10.746;2023-05-07T01:27:33;3.10;;;2.83;;
8632;SDS011;4354;49.832;10.746;2023-05-07T01:30:01;2.77;;;2.57;;
8632;SDS011;4354;49.832;10.746;2023-05-07T01:32:33;5.97;;;3.20;;
8632;SDS011;4354;49.832;10.746;2023-05-07T01:35:15;5.00;;;3.33;;
8632;SDS011;4354;49.832;10.746;2023-05-07T01:37:49;4.27;;;3.30;;
8632;SDS011;4354;49.832;10.746;2023-05-07T01:40:16;5.33;;;3.17;;
8632;SDS011;4354;49.832;10.746;2023-05-07T01:42:45;3.23;;;2.93;;
8632;SDS011;4354;49.832;10.746;2023-05-07T01:45:12;3.27;;;2.97;;
8632;SDS011;4354;49.832;10.746;2023-05-07T01:47:39;3.97;;;3.10;;
8632;SDS011;4354;49.832;10.746;2023-05-07T01:50:07;4.73;;;3.23;;
8632;SDS011;4354;49.832;10.746;2023-05-07T01:52:37;6.03;;;3.37;;
8632;SDS011;4354;49.832;10.746;2023-05-07T01:55:05;6.50;;;3.07;;
8632;SDS011;4354;49.832;10.746;2023-05-07T01:57:32;6.30;;;3.00;;
8632;SDS011;4354;49.832;10.746;2023-05-07T01:59:59;5.77;;;3.60;;
8632;SDS011;4354;49.832;10.746;2023-05-07T02:02:25;4.30;;;3.33;;
8632;SDS011;4354;49.832;10.746;2023-05-07T02:04:52;4.30;;;3.40;;
8632;SDS011;4354;49.832;10.746;2023-05-07T02:07:19;4.70;;;3.40;;
8632;SDS011;4354;49.832;10.746;2023-05-07T02:09:46;3.37;;;3.07;;
8632;SDS011;4354;49.832;10.746;2023-05-07T02:12:12;4.97;;;3.70;;
8632;SDS011;4354;49.832;10.746;2023-05-07T02:14:39;3.87;;;3.57;;
8632;SDS011;4354;49.832;10.746;2023-05-07T02:17:06;6.30;;;3.47;;
8632;SDS011;4354;49.832;10.746;2023-05-07T02:19:33;7.43;;;4.27;;
8632;SDS011;4354;49.832;10.746;2023-05-07T02:22:00;3.50;;;3.20;;
8632;SDS011;4354;49.832;10.746;2023-05-07T02:24:28;5.97;;;3.87;;
8632;SDS011;4354;49.832;10.746;2023-05-07T02:26:56;7.83;;;4.40;;
8632;SDS011;4354;49.832;10.746;2023-05-07T02:29:22;5.50;;;5.00;;
8632;SDS011;4354;49.832;10.746;2023-05-07T02:31:50;4.87;;;4.47;;
8632;SDS011;4354;49.832;10.746;2023-05-07T02:34:19;7.07;;;4.17;;
8632;SDS011;4354;49.832;10.746;2023-05-07T02:36:46;5.20;;;3.80;;
8632;SDS011;4354;49.832;10.746;2023-05-07T02:39:13;5.83;;;4.50;;
8632;SDS011;4354;49.832;10.746;2023-05-07T02:41:40;4.87;;;4.47;;
8632;SDS011;4354;49.832;10.746;2023-05-07T02:44:06;5.47;;;4.97;;
8632;SDS011;4354;49.832;10.746;2023-05-07T02:46:33;4.53;;;3.60;;
8632;SDS011;4354;49.832;10.746;2023-05-07T02:49:00;4.33;;;4.03;;
8632;SDS011;4354;49.832;10.746;2023-05-07T02:51:29;4.30;;;3.90;;
8632;SDS011;4354;49.832;10.746;2023-05-07T02:53:56;6.73;;;4.13;;
8632;SDS011;4354;49.832;10.746;2023-05-07T02:56:25;5.43;;;4.07;;
8632;SDS011;4354;49.832;10.746;2023-05-07T02:58:52;4.83;;;4.33;;
8632;SDS011;4354;49.832;10.746;2023-05-07T03:01:19;6.27;;;4.50;;
8632;SDS011;4354;49.832;10.746;2023-05-07T03:03:47;3.70;;;3.37;;
8632;SDS011;4354;49.832;10.746;2023-05-07T03:06:14;6.77;;;4.20;;
8632;SDS011;4354;49.832;10.746;2023-05-07T03:08:41;4.57;;;4.17;;
8632;SDS011;4354;49.832;10.746;2023-05-07T03:11:08;4.53;;;4.00;;
8632;SDS011;4354;49.832;10.746;2023-05-07T03:13:36;4.67;;;4.27;;
8632;SDS011;4354;49.832;10.746;2023-05-07T03:16:03;5.93;;;3.80;;
8632;SDS011;4354;49.832;10.746;2023-05-07T03:18:30;5.57;;;4.00;;
8632;SDS011;4354;49.832;10.746;2023-05-07T03:20:57;4.23;;;3.93;;
8632;SDS011;4354;49.832;10.746;2023-05-07T03:23:24;4.43;;;3.93;;
8632;SDS011;4354;49.832;10.746;2023-05-07T03:25:51;5.70;;;4.40;;
8632;SDS011;4354;49.832;10.746;2023-05-07T03:28:18;7.53;;;4.07;;
8632;SDS011;4354;49.832;10.746;2023-05-07T03:30:45;5.93;;;4.57;;
8632;SDS011;4354;49.832;10.746;2023-05-07T03:33:12;10.50;;;4.43;;
8632;SDS011;4354;49.832;10.746;2023-05-07T03:35:39;4.43;;;4.03;;
8632;SDS011;4354;49.832;10.746;2023-05-07T03:38:06;4.57;;;4.20;;
8632;SDS011;4354;49.832;10.746;2023-05-07T03:40:34;5.00;;;4.00;;
8632;SDS011;4354;49.832;10.746;2023-05-07T03:43:01;4.60;;;4.10;;
8632;SDS011;4354;49.832;10.746;2023-05-07T03:45:28;5.37;;;4.90;;
8632;SDS011;4354;49.832;10.746;2023-05-07T03:47:55;5.57;;;5.00;;
8632;SDS011;4354;49.832;10.746;2023-05-07T03:50:22;5.80;;;5.30;;
8632;SDS011;4354;49.832;10.746;2023-05-07T03:52:49;5.23;;;4.73;;
8632;SDS011;4354;49.832;10.746;2023-05-07T03:55:16;5.30;;;4.83;;
8632;SDS011;4354;49.832;10.746;2023-05-07T03:57:42;5.60;;;5.10;;
8632;SDS011;4354;49.832;10.746;2023-05-07T04:00:10;5.80;;;5.30;;
8632;SDS011;4354;49.832;10.746;2023-05-07T04:02:38;5.93;;;4.57;;
8632;SDS011;4354;49.832;10.746;2023-05-07T04:05:05;6.57;;;4.57;;
8632;SDS011;4354;49.832;10.746;2023-05-07T04:07:32;5.80;;;5.20;;
8632;SDS011;4354;49.832;10.746;2023-05-07T04:09:59;6.03;;;5.33;;
8632;SDS011;4354;49.832;10.746;2023-05-07T04:12:26;7.30;;;6.13;;
8632;SDS011;4354;49.832;10.746;2023-05-07T04:14:52;6.63;;;6.03;;
8632;SDS011;4354;49.832;10.746;2023-05-07T04:17:19;12.50;;;11.20;;
8632;SDS011;4354;49.832;10.746;2023-05-07T04:19:46;7.07;;;6.37;;
8632;SDS011;4354;49.832;10.746;2023-05-07T04:22:13;6.93;;;5.20;;
8632;SDS011;4354;49.832;10.746;2023-05-07T04:24:39;5.33;;;4.83;;
8632;SDS011;4354;49.832;10.746;2023-05-07T04:27:06;5.50;;;5.00;;
8632;SDS011;4354;49.832;10.746;2023-05-07T04:29:33;6.83;;;5.00;;
8632;SDS011;4354;49.832;10.746;2023-05-07T04:31:59;5.40;;;4.90;;
8632;SDS011;4354;49.832;10.746;2023-05-07T04:34:26;5.80;;;5.30;;
8632;SDS011;4354;49.832;10.746;2023-05-07T04:36:53;5.97;;;5.47;;
8632;SDS011;4354;49.832;10.746;2023-05-07T04:39:20;5.23;;;4.83;;
8632;SDS011;4354;49.832;10.746;2023-05-07T04:41:47;4.33;;;3.93;;
8632;SDS011;4354;49.832;10.746;2023-05-07T04:44:13;7.50;;;4.40;;
8632;SDS011;4354;49.832;10.746;2023-05-07T04:46:40;7.80;;;5.97;;
8632;SDS011;4354;49.832;10.746;2023-05-07T04:49:07;7.87;;;5.70;;
8632;SDS011;4354;49.832;10.746;2023-05-07T04:51:34;5.40;;;4.60;;
8632;SDS011;4354;49.832;10.746;2023-05-07T04:54:01;5.50;;;4.93;;
8632;SDS011;4354;49.832;10.746;2023-05-07T04:56:28;5.30;;;4.80;;
8632;SDS011;4354;49.832;10.746;2023-05-07T04:58:56;5.10;;;4.57;;
8632;SDS011;4354;49.832;10.746;2023-05-07T05:01:22;5.37;;;4.73;;
8632;SDS011;4354;49.832;10.746;2023-05-07T05:03:49;4.13;;;3.83;;
8632;SDS011;4354;49.832;10.746;2023-05-07T05:06:16;4.73;;;4.23;;
8632;SDS011;4354;49.832;10.746;2023-05-07T05:08:43;5.20;;;4.80;;
8632;SDS011;4354;49.832;10.746;2023-05-07T05:11:10;5.37;;;4.50;;
8632;SDS011;4354;49.832;10.746;2023-05-07T05:13:36;5.33;;;4.83;;
8632;SDS011;4354;49.832;10.746;2023-05-07T05:16:03;4.70;;;4.30;;
8632;SDS011;4354;49.832;10.746;2023-05-07T05:18:30;10.13;;;4.80;;
8632;SDS011;4354;49.832;10.746;2023-05-07T05:20:57;4.80;;;4.30;;
8632;SDS011;4354;49.832;10.746;2023-05-07T05:23:24;5.30;;;4.80;;
8632;SDS011;4354;49.832;10.746;2023-05-07T05:25:55;5.07;;;4.60;;
8632;SDS011;4354;49.832;10.746;2023-05-07T05:28:26;5.53;;;4.70;;
8632;SDS011;4354;49.832;10.746;2023-05-07T05:30:54;5.43;;;4.90;;
8632;SDS011;4354;49.832;10.746;2023-05-07T05:33:20;7.50;;;6.80;;
8632;SDS011;4354;49.832;10.746;2023-05-07T05:35:47;7.03;;;6.10;;
8632;SDS011;4354;49.832;10.746;2023-05-07T05:38:14;7.20;;;6.47;;
8632;SDS011;4354;49.832;10.746;2023-05-07T05:40:40;8.23;;;7.50;;
8632;SDS011;4354;49.832;10.746;2023-05-07T05:43:07;8.53;;;7.67;;
8632;SDS011;4354;49.832;10.746;2023-05-07T05:45:34;7.10;;;6.50;;
8632;SDS011;4354;49.832;10.746;2023-05-07T05:48:01;7.43;;;6.73;;
8632;SDS011;4354;49.832;10.746;2023-05-07T05:50:28;7.93;;;7.23;;
8632;SDS011;4354;49.832;10.746;2023-05-07T05:52:54;7.50;;;6.80;;
8632;SDS011;4354;49.832;10.746;2023-05-07T05:55:21;8.40;;;7.37;;
8632;SDS011;4354;49.832;10.746;2023-05-07T05:57:48;7.70;;;6.97;;
8632;SDS011;4354;49.832;10.746;2023-05-07T06:00:16;7.93;;;7.27;;
8632;SDS011;4354;49.832;10.746;2023-05-07T06:02:43;9.00;;;8.10;;
8632;SDS011;4354;49.832;10.746;2023-05-07T06:05:10;8.15;;;7.45;;
8632;SDS011;4354;49.832;10.746;2023-05-07T06:07:36;8.57;;;7.70;;
8632;SDS011;4354;49.832;10.746;2023-05-07T06:10:03;7.50;;;6.90;;
8632;SDS011;4354;49.832;10.746;2023-05-07T06:12:30;7.72;;;7.13;;
8632;SDS011;4354;49.832;10.746;2023-05-07T06:14:57;8.00;;;7.30;;
8632;SDS011;4354;49.832;10.746;2023-05-07T06:17:24;7.60;;;6.97;;
8632;SDS011;4354;49.832;10.746;2023-05-07T06:19:51;9.25;;;8.13;;
8632;SDS011;4354;49.832;10.746;2023-05-07T06:22:18;8.88;;;8.00;;
8632;SDS011;4354;49.832;10.746;2023-05-07T06:24:45;8.38;;;7.63;;
8632;SDS011;4354;49.832;10.746;2023-05-07T06:27:12;9.95;;;7.93;;
8632;SDS011;4354;49.832;10.746;2023-05-07T06:29:39;10.10;;;8.25;;
8632;SDS011;4354;49.832;10.746;2023-05-07T06:32:09;8.75;;;7.90;;
8632;SDS011;4354;49.832;10.746;2023-05-07T06:34:37;9.00;;;7.25;;
8632;SDS011;4354;49.832;10.746;2023-05-07T06:37:05;9.27;;;8.38;;
8632;SDS011;4354;49.832;10.746;2023-05-07T06:39:32;8.73;;;7.93;;
8632;SDS011;4354;49.832;10.746;2023-05-07T06:42:00;8.45;;;7.65;;
8632;SDS011;4354;49.832;10.746;2023-05-07T06:44:26;9.13;;;8.23;;
8632;SDS011;4354;49.832;10.746;2023-05-07T06:46:53;8.88;;;8.02;;
8632;SDS011;4354;49.832;10.746;2023-05-07T06:49:20;9.23;;;8.30;;
8632;SDS011;4354;49.832;10.746;2023-05-07T06:51:47;8.52;;;7.82;;
8632;SDS011;4354;49.832;10.746;2023-05-07T06:54:13;8.68;;;7.88;;
8632;SDS011;4354;49.832;10.746;2023-05-07T06:56:40;8.77;;;7.97;;
8632;SDS011;4354;49.832;10.746;2023-05-07T06:59:08;9.23;;;8.43;;
8632;SDS011;4354;49.832;10.746;2023-05-07T07:01:34;8.35;;;7.57;;
8632;SDS011;4354;49.832;10.746;2023-05-07T07:04:01;8.93;;;7.47;;
8632;SDS011;4354;49.832;10.746;2023-05-07T07:06:28;8.13;;;7.43;;
8632;SDS011;4354;49.832;10.746;2023-05-07T07:08:55;8.35;;;7.45;;
8632;SDS011;4354;49.832;10.746;2023-05-07T07:11:22;8.65;;;7.75;;
8632;SDS011;4354;49.832;10.746;2023-05-07T07:13:49;8.43;;;7.63;;
8632;SDS011;4354;49.832;10.746;2023-05-07T07:16:16;8.88;;;8.13;;
8632;SDS011;4354;49.832;10.746;2023-05-07T07:18:43;8.57;;;7.78;;
8632;SDS011;4354;49.832;10.746;2023-05-07T07:21:10;8.52;;;7.72;;
8632;SDS011;4354;49.832;10.746;2023-05-07T07:23:37;7.97;;;7.20;;
8632;SDS011;4354;49.832;10.746;2023-05-07T07:26:04;8.75;;;7.55;;
8632;SDS011;4354;49.832;10.746;2023-05-07T07:28:32;8.25;;;7.45;;
8632;SDS011;4354;49.832;10.746;2023-05-07T07:30:59;8.52;;;7.60;;
8632;SDS011;4354;49.832;10.746;2023-05-07T07:33:25;8.27;;;7.43;;
8632;SDS011;4354;49.832;10.746;2023-05-07T07:35:53;8.18;;;7.43;;
8632;SDS011;4354;49.832;10.746;2023-05-07T07:38:19;8.38;;;7.65;;
8632;SDS011;4354;49.832;10.746;2023-05-07T07:40:47;7.78;;;7.00;;
8632;SDS011;4354;49.832;10.746;2023-05-07T07:43:14;7.90;;;7.07;;
8632;SDS011;4354;49.832;10.746;2023-05-07T07:45:40;8.27;;;6.95;;
8632;SDS011;4354;49.832;10.746;2023-05-07T07:48:08;7.00;;;6.40;;
8632;SDS011;4354;49.832;10.746;2023-05-07T07:50:34;7.18;;;6.57;;
8632;SDS011;4354;49.832;10.746;2023-05-07T07:53:10;7.63;;;6.93;;
8632;SDS011;4354;49.832;10.746;2023-05-07T07:55:40;7.57;;;6.88;;
8632;SDS011;4354;49.832;10.746;2023-05-07T07:58:07;7.03;;;6.32;;
8632;SDS011;4354;49.832;10.746;2023-05-07T08:00:34;9.07;;;6.45;;
8632;SDS011;4354;49.832;10.746;2023-05-07T08:03:00;7.30;;;6.57;;
8632;SDS011;4354;49.832;10.746;2023-05-07T08:05:29;7.55;;;6.60;;
8632;SDS011;4354;49.832;10.746;2023-05-07T08:07:56;6.85;;;6.35;;
8632;SDS011;4354;49.832;10.746;2023-05-07T08:10:24;6.13;;;5.60;;
8632;SDS011;4354;49.832;10.746;2023-05-07T08:12:51;6.22;;;5.60;;
8632;SDS011;4354;49.832;10.746;2023-05-07T08:15:18;6.22;;;5.63;;
8632;SDS011;4354;49.832;10.746;2023-05-07T08:17:45;6.45;;;5.68;;
8632;SDS011;4354;49.832;10.746;2023-05-07T08:20:12;6.53;;;5.80;;
8632;SDS011;4354;49.832;10.746;2023-05-07T08:22:40;6.15;;;5.55;;
8632;SDS011;4354;49.832;10.746;2023-05-07T08:25:07;5.95;;;5.45;;
8632;SDS011;4354;49.832;10.746;2023-05-07T08:27:34;5.93;;;5.18;;
8632;SDS011;4354;49.832;10.746;2023-05-07T08:30:01;6.15;;;5.65;;
8632;SDS011;4354;49.832;10.746;2023-05-07T08:32:28;6.97;;;6.38;;
8632;SDS011;4354;49.832;10.746;2023-05-07T08:34:55;6.30;;;5.72;;
8632;SDS011;4354;49.832;10.746;2023-05-07T08:37:21;6.75;;;5.70;;
8632;SDS011;4354;49.832;10.746;2023-05-07T08:39:48;6.32;;;5.72;;
8632;SDS011;4354;49.832;10.746;2023-05-07T08:42:16;6.18;;;5.57;;
8632;SDS011;4354;49.832;10.746;2023-05-07T08:44:44;6.85;;;6.15;;
8632;SDS011;4354;49.832;10.746;2023-05-07T08:47:13;6.18;;;5.57;;
8632;SDS011;4354;49.832;10.746;2023-05-07T08:49:40;5.97;;;5.57;;
8632;SDS011;4354;49.832;10.746;2023-05-07T08:52:07;6.03;;;5.53;;
8632;SDS011;4354;49.832;10.746;2023-05-07T08:54:36;6.05;;;5.55;;
8632;SDS011;4354;49.832;10.746;2023-05-07T08:57:03;6.40;;;5.90;;
8632;SDS011;4354;49.832;10.746;2023-05-07T08:59:30;5.65;;;5.15;;
8632;SDS011;4354;49.832;10.746;2023-05-07T09:01:57;6.15;;;5.57;;
8632;SDS011;4354;49.832;10.746;2023-05-07T09:04:24;6.70;;;5.45;;
8632;SDS011;4354;49.832;10.746;2023-05-07T09:06:51;6.60;;;5.80;;
8632;SDS011;4354;49.832;10.746;2023-05-07T09:09:18;5.82;;;5.32;;
8632;SDS011;4354;49.832;10.746;2023-05-07T09:11:45;6.18;;;5.63;;
8632;SDS011;4354;49.832;10.746;2023-05-07T09:14:11;5.53;;;5.03;;
8632;SDS011;4354;49.832;10.746;2023-05-07T09:16:38;6.85;;;6.25;;
8632;SDS011;4354;49.832;10.746;2023-05-07T09:19:05;5.72;;;5.25;;
8632;SDS011;4354;49.832;10.746;2023-05-07T09:21:32;6.35;;;5.75;;
8632;SDS011;4354;49.832;10.746;2023-05-07T09:23:59;5.22;;;4.82;;
8632;SDS011;4354;49.832;10.746;2023-05-07T09:26:25;5.90;;;4.68;;
8632;SDS011;4354;49.832;10.746;2023-05-07T09:28:54;5.18;;;4.65;;
8632;SDS011;4354;49.832;10.746;2023-05-07T09:31:21;5.43;;;4.93;;
8632;SDS011;4354;49.832;10.746;2023-05-07T09:33:49;4.95;;;4.55;;
8632;SDS011;4354;49.832;10.746;2023-05-07T09:36:16;5.13;;;4.72;;
8632;SDS011;4354;49.832;10.746;2023-05-07T09:38:44;6.05;;;5.55;;
8632;SDS011;4354;49.832;10.746;2023-05-07T09:41:12;5.78;;;5.35;;
8632;SDS011;4354;49.832;10.746;2023-05-07T09:43:39;7.43;;;6.63;;
8632;SDS011;4354;49.832;10.746;2023-05-07T09:46:08;7.50;;;6.00;;
8632;SDS011;4354;49.832;10.746;2023-05-07T09:48:39;6.50;;;5.57;;
8632;SDS011;4354;49.832;10.746;2023-05-07T09:51:13;5.95;;;5.45;;
8632;SDS011;4354;49.832;10.746;2023-05-07T09:53:44;5.65;;;5.15;;
8632;SDS011;4354;49.832;10.746;2023-05-07T09:56:13;5.65;;;5.15;;
8632;SDS011;4354;49.832;10.746;2023-05-07T09:58:43;5.53;;;5.03;;
8632;SDS011;4354;49.832;10.746;2023-05-07T10:01:11;5.35;;;4.85;;
8632;SDS011;4354;49.832;10.746;2023-05-07T10:03:41;5.72;;;5.13;;
8632;SDS011;4354;49.832;10.746;2023-05-07T10:06:10;5.78;;;5.07;;
8632;SDS011;4354;49.832;10.746;2023-05-07T10:08:39;6.18;;;5.63;;
8632;SDS011;4354;49.832;10.746;2023-05-07T10:11:06;5.20;;;4.68;;
8632;SDS011;4354;49.832;10.746;2023-05-07T10:13:33;5.57;;;5.07;;
8632;SDS011;4354;49.832;10.746;2023-05-07T10:16:04;5.78;;;5.28;;
8632;SDS011;4354;49.832;10.746;2023-05-07T10:18:32;5.60;;;5.10;;
8632;SDS011;4354;49.832;10.746;2023-05-07T10:21:04;6.10;;;5.50;;
8632;SDS011;4354;49.832;10.746;2023-05-07T10:23:50;5.88;;;5.32;;
8632;SDS011;4354;49.832;10.746;2023-05-07T10:26:20;6.22;;;5.05;;
8632;SDS011;4354;49.832;10.746;2023-05-07T10:28:50;5.40;;;4.95;;
8632;SDS011;4354;49.832;10.746;2023-05-07T10:34:23;4.95;;;4.53;;
8632;SDS011;4354;49.832;10.746;2023-05-07T10:36:54;4.63;;;4.32;;
8632;SDS011;4354;49.832;10.746;2023-05-07T10:39:22;5.85;;;5.35;;
8632;SDS011;4354;49.832;10.746;2023-05-07T10:41:49;5.40;;;4.90;;
8632;SDS011;4354;49.832;10.746;2023-05-07T10:44:26;4.72;;;4.40;;
8632;SDS011;4354;49.832;10.746;2023-05-07T10:52:16;4.57;;;4.18;;
8632;SDS011;4354;49.832;10.746;2023-05-07T10:54:45;4.30;;;3.90;;
8632;SDS011;4354;49.832;10.746;2023-05-07T10:59:58;5.18;;;4.43;;
8632;SDS011;4354;49.832;10.746;2023-05-07T11:03:04;3.92;;;3.50;;
8632;SDS011;4354;49.832;10.746;2023-05-07T11:05:31;5.40;;;4.15;;
8632;SDS011;4354;49.832;10.746;2023-05-07T11:08:03;3.95;;;3.65;;
8632;SDS011;4354;49.832;10.746;2023-05-07T11:10:50;4.05;;;3.75;;
8632;SDS011;4354;49.832;10.746;2023-05-07T11:18:47;4.65;;;4.20;;
8632;SDS011;4354;49.832;10.746;2023-05-07T11:24:01;4.03;;;3.65;;
8632;SDS011;4354;49.832;10.746;2023-05-07T11:26:30;3.75;;;3.45;;
8632;SDS011;4354;49.832;10.746;2023-05-07T11:29:11;3.83;;;3.53;;
8632;SDS011;4354;49.832;10.746;2023-05-07T11:31:39;3.95;;;3.28;;
8632;SDS011;4354;49.832;10.746;2023-05-07T11:34:07;5.80;;;3.40;;
8632;SDS011;4354;49.832;10.746;2023-05-07T11:36:35;3.63;;;3.33;;
8632;SDS011;4354;49.832;10.746;2023-05-07T11:39:22;4.45;;;3.70;;
8632;SDS011;4354;49.832;10.746;2023-05-07T11:42:07;3.45;;;2.97;;
8632;SDS011;4354;49.832;10.746;2023-05-07T11:44:51;3.45;;;2.55;;
8632;SDS011;4354;49.832;10.746;2023-05-07T11:47:18;2.83;;;2.47;;
8632;SDS011;4354;49.832;10.746;2023-05-07T11:49:51;3.20;;;3.00;;
8632;SDS011;4354;49.832;10.746;2023-05-07T11:52:20;2.70;;;2.42;;
8632;SDS011;4354;49.832;10.746;2023-05-07T11:54:52;3.88;;;3.00;;
8632;SDS011;4354;49.832;10.746;2023-05-07T11:57:21;3.85;;;2.63;;
8632;SDS011;4354;49.832;10.746;2023-05-07T11:59:52;3.50;;;2.63;;
8632;SDS011;4354;49.832;10.746;2023-05-07T12:02:23;2.50;;;2.30;;
8632;SDS011;4354;49.832;10.746;2023-05-07T12:04:51;3.47;;;2.70;;
8632;SDS011;4354;49.832;10.746;2023-05-07T12:07:19;2.55;;;2.25;;
8632;SDS011;4354;49.832;10.746;2023-05-07T12:09:46;2.92;;;2.55;;
8632;SDS011;4354;49.832;10.746;2023-05-07T12:12:14;2.78;;;2.50;;
8632;SDS011;4354;49.832;10.746;2023-05-07T12:14:42;3.15;;;2.53;;
8632;SDS011;4354;49.832;10.746;2023-05-07T12:17:10;2.92;;;2.50;;
8632;SDS011;4354;49.832;10.746;2023-05-07T12:19:39;2.58;;;2.38;;
8632;SDS011;4354;49.832;10.746;2023-05-07T12:22:07;5.03;;;2.88;;
8632;SDS011;4354;49.832;10.746;2023-05-07T12:24:47;2.80;;;2.60;;
8632;SDS011;4354;49.832;10.746;2023-05-07T12:27:16;3.22;;;2.17;;
8632;SDS011;4354;49.832;10.746;2023-05-07T12:29:44;2.80;;;2.55;;
8632;SDS011;4354;49.832;10.746;2023-05-07T12:32:13;2.70;;;2.50;;
8632;SDS011;4354;49.832;10.746;2023-05-07T12:34:45;3.55;;;2.70;;
8632;SDS011;4354;49.832;10.746;2023-05-07T12:37:15;2.90;;;2.70;;
8632;SDS011;4354;49.832;10.746;2023-05-07T12:39:48;2.90;;;2.70;;
8632;SDS011;4354;49.832;10.746;2023-05-07T12:42:16;3.30;;;2.78;;
8632;SDS011;4354;49.832;10.746;2023-05-07T12:44:46;3.05;;;2.60;;
8632;SDS011;4354;49.832;10.746;2023-05-07T12:47:14;3.33;;;2.80;;
8632;SDS011;4354;49.832;10.746;2023-05-07T12:49:41;4.28;;;2.50;;
8632;SDS011;4354;49.832;10.746;2023-05-07T12:52:09;3.08;;;2.75;;
8632;SDS011;4354;49.832;10.746;2023-05-07T12:54:37;3.08;;;2.60;;
8632;SDS011;4354;49.832;10.746;2023-05-07T12:57:05;2.90;;;2.70;;
8632;SDS011;4354;49.832;10.746;2023-05-07T12:59:34;3.70;;;2.58;;
8632;SDS011;4354;49.832;10.746;2023-05-07T13:02:06;2.53;;;2.33;;
8632;SDS011;4354;49.832;10.746;2023-05-07T13:04:34;2.53;;;2.33;;
8632;SDS011;4354;49.832;10.746;2023-05-07T13:07:02;2.90;;;2.60;;
8632;SDS011;4354;49.832;10.746;2023-05-07T13:09:29;3.28;;;2.58;;
8632;SDS011;4354;49.832;10.746;2023-05-07T13:11:57;2.60;;;2.40;;
8632;SDS011;4354;49.832;10.746;2023-05-07T13:14:27;2.83;;;2.63;;
8632;SDS011;4354;49.832;10.746;2023-05-07T13:16:54;2.40;;;2.20;;
8632;SDS011;4354;49.832;10.746;2023-05-07T13:19:21;3.30;;;2.80;;
8632;SDS011;4354;49.832;10.746;2023-05-07T13:21:47;3.10;;;2.80;;
8632;SDS011;4354;49.832;10.746;2023-05-07T13:24:15;3.17;;;2.70;;
8632;SDS011;4354;49.832;10.746;2023-05-07T13:26:42;2.70;;;2.50;;
8632;SDS011;4354;49.832;10.746;2023-05-07T13:29:11;3.42;;;2.70;;
8632;SDS011;4354;49.832;10.746;2023-05-07T13:31:38;3.15;;;2.80;;
8632;SDS011;4354;49.832;10.746;2023-05-07T13:34:09;3.20;;;2.90;;
8632;SDS011;4354;49.832;10.746;2023-05-07T13:36:36;4.40;;;3.20;;
8632;SDS011;4354;49.832;10.746;2023-05-07T13:39:06;4.68;;;3.70;;
8632;SDS011;4354;49.832;10.746;2023-05-07T13:41:32;3.55;;;3.25;;
8632;SDS011;4354;49.832;10.746;2023-05-07T13:43:59;5.68;;;3.53;;
8632;SDS011;4354;49.832;10.746;2023-05-07T13:46:26;4.50;;;3.25;;
8632;SDS011;4354;49.832;10.746;2023-05-07T13:48:53;3.60;;;3.30;;
8632;SDS011;4354;49.832;10.746;2023-05-07T13:51:20;3.78;;;3.47;;
8632;SDS011;4354;49.832;10.746;2023-05-07T13:53:48;3.40;;;3.10;;
8632;SDS011;4354;49.832;10.746;2023-05-07T13:56:14;4.30;;;3.22;;
8632;SDS011;4354;49.832;10.746;2023-05-07T13:58:41;4.03;;;3.60;;
8632;SDS011;4354;49.832;10.746;2023-05-07T14:01:24;3.45;;;3.00;;
8632;SDS011;4354;49.832;10.746;2023-05-07T14:03:51;3.50;;;3.20;;
8632;SDS011;4354;49.832;10.746;2023-05-07T14:06:18;3.58;;;3.28;;
8632;SDS011;4354;49.832;10.746;2023-05-07T14:08:44;3.90;;;3.30;;
8632;SDS011;4354;49.832;10.746;2023-05-07T14:11:11;3.65;;;3.13;;
8632;SDS011;4354;49.832;10.746;2023-05-07T14:13:38;3.53;;;3.20;;
8632;SDS011;4354;49.832;10.746;2023-05-07T14:16:05;3.35;;;3.05;;
8632;SDS011;4354;49.832;10.746;2023-05-07T14:18:32;3.25;;;3.00;;
8632;SDS011;4354;49.832;10.746;2023-05-07T14:21:00;3.42;;;3.00;;
8632;SDS011;4354;49.832;10.746;2023-05-07T14:23:27;3.70;;;3.30;;
8632;SDS011;4354;49.832;10.746;2023-05-07T14:25:54;3.30;;;3.00;;
8632;SDS011;4354;49.832;10.746;2023-05-07T14:28:23;3.10;;;2.80;;
8632;SDS011;4354;49.832;10.746;2023-05-07T14:30:50;3.20;;;2.90;;
8632;SDS011;4354;49.832;10.746;2023-05-07T14:33:17;3.75;;;3.38;;
8632;SDS011;4354;49.832;10.746;2023-05-07T14:35:43;3.90;;;3.08;;
8632;SDS011;4354;49.832;10.746;2023-05-07T14:38:14;3.70;;;3.35;;
8632;SDS011;4354;49.832;10.746;2023-05-07T14:40:41;3.50;;;3.17;;
8632;SDS011;4354;49.832;10.746;2023-05-07T14:43:08;3.42;;;3.13;;
8632;SDS011;4354;49.832;10.746;2023-05-07T14:45:35;3.28;;;2.97;;
8632;SDS011;4354;49.832;10.746;2023-05-07T14:48:02;3.40;;;3.10;;
8632;SDS011;4354;49.832;10.746;2023-05-07T14:50:29;3.20;;;2.92;;
8632;SDS011;4354;49.832;10.746;2023-05-07T14:52:56;3.83;;;3.50;;
8632;SDS011;4354;49.832;10.746;2023-05-07T14:55:23;3.60;;;3.28;;
8632;SDS011;4354;49.832;10.746;2023-05-07T14:57:50;3.55;;;3.25;;
8632;SDS011;4354;49.832;10.746;2023-05-07T15:00:16;4.80;;;3.40;;
8632;SDS011;4354;49.832;10.746;2023-05-07T15:02:43;3.33;;;3.13;;
8632;SDS011;4354;49.832;10.746;2023-05-07T15:05:10;3.50;;;3.00;;
8632;SDS011;4354;49.832;10.746;2023-05-07T15:07:38;3.35;;;3.13;;
8632;SDS011;4354;49.832;10.746;2023-05-07T15:10:05;3.47;;;3.15;;
8632;SDS011;4354;49.832;10.746;2023-05-07T15:12:32;4.05;;;3.70;;
8632;SDS011;4354;49.832;10.746;2023-05-07T15:14:59;4.00;;;3.10;;
8632;SDS011;4354;49.832;10.746;2023-05-07T15:17:26;3.83;;;3.38;;
8632;SDS011;4354;49.832;10.746;2023-05-07T15:19:52;4.30;;;2.65;;
8632;SDS011;4354;49.832;10.746;2023-05-07T15:22:19;6.72;;;2.95;;
8632;SDS011;4354;49.832;10.746;2023-05-07T15:24:47;2.95;;;2.65;;